createdAt,value
2023-05-17T00:00:11.840Z,708.00
2023-05-17T00:01:11.817Z,674.00
2023-05-17T00:02:11.907Z,673.00
2023-05-17T00:03:11.970Z,658.00
2023-05-17T00:04:11.827Z,689.00
2023-05-17T00:05:11.784Z,655.00
2023-05-17T00:06:11.803Z,675.00
2023-05-17T00:07:11.780Z,690.00
2023-05-17T00:08:11.790Z,683.00
2023-05-17T00:09:11.766Z,670.00
2023-05-17T00:10:11.756Z,675.00
2023-05-17T00:11:11.762Z,659.00
2023-05-17T00:12:11.756Z,683.00
2023-05-17T00:13:11.727Z,710.00
2023-05-17T00:14:11.750Z,690.00
2023-05-17T00:15:11.717Z,687.00
2023-05-17T00:16:11.708Z,701.00
2023-05-17T00:17:11.701Z,706.00
2023-05-17T00:18:11.894Z,734.00
2023-05-17T00:19:11.846Z,754.00
2023-05-17T00:20:11.687Z,752.00
2023-05-17T00:21:11.662Z,748.00
2023-05-17T00:22:11.731Z,734.00
2023-05-17T00:23:11.670Z,740.00
2023-05-17T00:24:11.657Z,740.00
2023-05-17T00:25:11.640Z,733.00
2023-05-17T00:26:11.634Z,742.00
2023-05-17T00:27:11.644Z,757.00
2023-05-17T00:28:11.619Z,776.00
2023-05-17T00:29:11.619Z,756.00
2023-05-17T00:30:11.650Z,745.00
2023-05-17T00:31:11.620Z,779.00
2023-05-17T00:32:11.585Z,776.00
2023-05-17T00:33:11.593Z,787.00
2023-05-17T00:34:11.730Z,776.00
2023-05-17T00:35:11.640Z,733.00
2023-05-17T00:36:11.581Z,706.00
2023-05-17T00:37:11.555Z,740.00
2023-05-17T00:38:11.555Z,758.00
2023-05-17T00:39:11.570Z,763.00
2023-05-17T00:40:11.555Z,762.00
2023-05-17T00:41:11.530Z,760.00
2023-05-17T00:42:11.552Z,777.00
2023-05-17T00:43:11.536Z,765.00
2023-05-17T00:44:11.527Z,782.00
2023-05-17T00:45:11.501Z,730.00
2023-05-17T00:46:11.509Z,749.00
2023-05-17T00:47:11.566Z,748.00
2023-05-17T00:48:11.628Z,768.00
2023-05-17T00:49:11.481Z,796.00
2023-05-17T00:50:11.563Z,695.00
2023-05-17T00:51:11.469Z,708.00
2023-05-17T00:52:11.461Z,741.00
2023-05-17T00:53:11.463Z,729.00
2023-05-17T00:54:11.451Z,770.00
2023-05-17T00:55:11.476Z,738.00
2023-05-17T00:56:11.457Z,728.00
2023-05-17T00:57:11.465Z,725.00
2023-05-17T00:58:11.448Z,757.00
2023-05-17T00:59:11.419Z,766.00
2023-05-17T01:00:11.408Z,750.00
2023-05-17T01:01:11.504Z,686.00
2023-05-17T01:02:11.412Z,725.00
2023-05-17T01:03:11.447Z,729.00
2023-05-17T01:04:11.525Z,712.00
2023-05-17T01:05:11.388Z,739.00
2023-05-17T01:06:11.433Z,722.00
2023-05-17T01:07:11.376Z,740.00
2023-05-17T01:08:11.371Z,718.00
2023-05-17T01:09:11.358Z,717.00
2023-05-17T01:10:11.344Z,733.00
2023-05-17T01:11:11.338Z,709.00
2023-05-17T01:12:11.330Z,686.00
2023-05-17T01:13:11.323Z,656.00
2023-05-17T01:14:11.333Z,663.00
2023-05-17T01:15:11.317Z,664.00
2023-05-17T01:16:11.319Z,679.00
2023-05-17T01:17:11.305Z,655.00
2023-05-17T01:18:11.418Z,655.00
2023-05-17T01:19:11.348Z,631.00
2023-05-17T01:20:11.376Z,651.00
2023-05-17T01:21:11.285Z,657.00
2023-05-17T01:22:11.327Z,668.00
2023-05-17T01:23:11.275Z,669.00
2023-05-17T01:24:11.243Z,657.00
2023-05-17T01:25:11.250Z,649.00
2023-05-17T01:26:11.236Z,633.00
2023-05-17T01:27:11.242Z,632.00
2023-05-17T01:28:11.243Z,630.00
2023-05-17T01:29:11.208Z,634.00
2023-05-17T01:30:11.218Z,632.00
2023-05-17T01:31:11.193Z,630.00
2023-05-17T01:32:11.188Z,624.00
2023-05-17T01:33:11.260Z,624.00
2023-05-17T01:34:11.175Z,644.00
2023-05-17T01:35:11.168Z,629.00
2023-05-17T01:36:11.184Z,639.00
2023-05-17T01:37:11.170Z,637.00
2023-05-17T01:38:11.308Z,639.00
2023-05-17T01:39:11.151Z,610.00
2023-05-17T01:40:11.136Z,616.00
2023-05-17T01:41:11.124Z,606.00
2023-05-17T01:42:11.188Z,611.00
2023-05-17T01:43:11.120Z,612.00
2023-05-17T01:44:11.112Z,622.00
2023-05-17T01:45:11.100Z,624.00
2023-05-17T01:46:11.084Z,627.00
2023-05-17T01:47:11.102Z,610.00
2023-05-17T01:48:11.129Z,617.00
2023-05-17T01:49:11.052Z,613.00
2023-05-17T01:50:11.050Z,614.00
2023-05-17T01:51:11.039Z,618.00
2023-05-17T01:52:11.055Z,611.00
2023-05-17T01:53:11.049Z,609.00
2023-05-17T01:54:11.125Z,584.00
2023-05-17T01:55:11.033Z,594.00
2023-05-17T01:56:11.013Z,604.00
2023-05-17T01:57:11.021Z,606.00
2023-05-17T01:58:11.017Z,611.00
2023-05-17T01:59:10.989Z,614.00
2023-05-17T02:00:11.018Z,613.00
2023-05-17T02:01:10.978Z,626.00
2023-05-17T02:02:10.974Z,608.00
2023-05-17T02:03:10.966Z,610.00
2023-05-17T02:04:11.066Z,591.00
2023-05-17T02:05:11.044Z,607.00
2023-05-17T02:06:10.981Z,611.00
2023-05-17T02:07:11.004Z,606.00
2023-05-17T02:08:11.011Z,618.00
2023-05-17T02:09:10.997Z,615.00
2023-05-17T02:10:11.127Z,615.00
2023-05-17T02:11:11.009Z,614.00
2023-05-17T02:12:11.037Z,600.00
2023-05-17T02:13:11.023Z,601.00
2023-05-17T02:14:11.031Z,603.00
2023-05-17T02:15:11.056Z,610.00
2023-05-17T02:16:11.041Z,612.00
2023-05-17T02:17:11.054Z,623.00
2023-05-17T02:18:11.115Z,623.00
2023-05-17T02:19:11.123Z,630.00
2023-05-17T02:20:11.078Z,627.00
2023-05-17T02:21:11.079Z,624.00
2023-05-17T02:22:11.090Z,625.00
2023-05-17T02:23:11.106Z,594.00
2023-05-17T02:24:11.107Z,584.00
2023-05-17T02:25:11.104Z,604.00
2023-05-17T02:26:11.223Z,573.00
2023-05-17T02:27:11.195Z,595.00
2023-05-17T02:28:11.140Z,604.00
2023-05-17T02:29:11.195Z,614.00
2023-05-17T02:30:11.158Z,605.00
2023-05-17T02:31:11.162Z,601.00
2023-05-17T02:32:11.176Z,595.00
2023-05-17T02:33:11.261Z,602.00
2023-05-17T02:34:11.187Z,594.00
2023-05-17T02:35:11.201Z,610.00
2023-05-17T02:36:11.198Z,597.00
2023-05-17T02:37:11.230Z,613.00
2023-05-17T02:38:11.243Z,610.00
2023-05-17T02:39:11.228Z,623.00
2023-05-17T02:40:11.256Z,615.00
2023-05-17T02:41:11.265Z,610.00
2023-05-17T02:42:11.337Z,607.00
2023-05-17T02:43:11.276Z,603.00
2023-05-17T02:44:11.302Z,619.00
2023-05-17T02:45:11.284Z,614.00
2023-05-17T02:46:11.294Z,619.00
2023-05-17T02:47:11.362Z,626.00
2023-05-17T02:48:11.363Z,638.00
2023-05-17T02:49:11.329Z,634.00
2023-05-17T02:50:11.360Z,602.00
2023-05-17T02:51:11.425Z,586.00
2023-05-17T02:52:11.357Z,582.00
2023-05-17T02:53:11.389Z,575.00
2023-05-17T02:54:11.375Z,573.00
2023-05-17T02:55:11.383Z,574.00
2023-05-17T02:56:11.413Z,604.00
2023-05-17T02:57:11.416Z,608.00
2023-05-17T02:58:11.483Z,612.00
2023-05-17T02:59:11.418Z,610.00
2023-05-17T03:00:11.417Z,618.00
2023-05-17T03:01:11.410Z,609.00
2023-05-17T03:02:11.479Z,617.00
2023-05-17T03:03:11.563Z,609.00
2023-05-17T03:04:11.483Z,622.00
2023-05-17T03:05:11.470Z,627.00
2023-05-17T03:06:11.451Z,614.00
2023-05-17T03:07:11.454Z,615.00
2023-05-17T03:08:11.469Z,591.00
2023-05-17T03:09:11.494Z,593.00
2023-05-17T03:10:11.486Z,599.00
2023-05-17T03:11:11.524Z,596.00
2023-05-17T03:12:11.516Z,590.00
2023-05-17T03:13:11.541Z,591.00
2023-05-17T03:14:11.529Z,584.00
2023-05-17T03:15:11.554Z,585.00
2023-05-17T03:16:11.570Z,589.00
2023-05-17T03:17:11.583Z,572.00
2023-05-17T03:18:11.655Z,571.00
2023-05-17T03:19:11.678Z,574.00
2023-05-17T03:20:11.610Z,560.00
2023-05-17T03:21:11.620Z,577.00
2023-05-17T03:22:11.626Z,571.00
2023-05-17T03:23:11.625Z,551.00
2023-05-17T03:24:11.631Z,577.00
2023-05-17T03:25:11.627Z,580.00
2023-05-17T03:26:11.639Z,584.00
2023-05-17T03:27:11.705Z,580.00
2023-05-17T03:28:11.664Z,579.00
2023-05-17T03:29:11.693Z,579.00
2023-05-17T03:30:11.741Z,579.00
2023-05-17T03:31:11.676Z,575.00
2023-05-17T03:32:11.692Z,581.00
2023-05-17T03:33:11.776Z,582.00
2023-05-17T03:34:11.774Z,573.00
2023-05-17T03:35:11.724Z,577.00
2023-05-17T03:36:11.719Z,567.00
2023-05-17T03:37:11.714Z,573.00
2023-05-17T03:38:11.729Z,567.00
2023-05-17T03:39:11.743Z,565.00
2023-05-17T03:40:11.757Z,545.00
2023-05-17T03:41:11.786Z,557.00
2023-05-17T03:42:11.793Z,558.00
2023-05-17T03:43:11.798Z,548.00
2023-05-17T03:44:11.827Z,569.00
2023-05-17T03:45:11.820Z,565.00
2023-05-17T03:46:11.868Z,544.00
2023-05-17T03:47:11.841Z,554.00
2023-05-17T03:48:11.889Z,564.00
2023-05-17T03:49:11.897Z,562.00
2023-05-17T03:50:11.877Z,558.00
2023-05-17T03:51:11.913Z,558.00
2023-05-17T03:52:11.899Z,557.00
2023-05-17T03:53:11.906Z,554.00
2023-05-17T03:54:11.915Z,546.00
2023-05-17T03:55:11.922Z,546.00
2023-05-17T03:56:11.931Z,517.00
2023-05-17T03:57:11.958Z,541.00
2023-05-17T03:58:11.975Z,559.00
2023-05-17T03:59:11.969Z,558.00
2023-05-17T04:00:12.002Z,576.00
2023-05-17T04:01:11.979Z,577.00
2023-05-17T04:02:12.067Z,574.00
2023-05-17T04:03:12.004Z,576.00
2023-05-17T04:04:12.031Z,569.00
2023-05-17T04:05:12.065Z,565.00
2023-05-17T04:06:12.012Z,562.00
2023-05-17T04:07:12.026Z,556.00
2023-05-17T04:08:12.023Z,551.00
2023-05-17T04:09:12.059Z,549.00
2023-05-17T04:10:12.043Z,545.00
2023-05-17T04:11:12.062Z,542.00
2023-05-17T04:12:12.034Z,562.00
2023-05-17T04:13:12.066Z,559.00
2023-05-17T04:14:12.073Z,565.00
2023-05-17T04:15:12.055Z,560.00
2023-05-17T04:16:12.093Z,557.00
2023-05-17T04:17:12.078Z,577.00
2023-05-17T04:18:12.217Z,572.00
2023-05-17T04:19:12.195Z,569.00
2023-05-17T04:20:12.124Z,589.00
2023-05-17T04:21:12.125Z,580.00
2023-05-17T04:22:12.130Z,573.00
2023-05-17T04:23:12.149Z,587.00
2023-05-17T04:24:12.160Z,568.00
2023-05-17T04:25:12.165Z,575.00
2023-05-17T04:26:12.164Z,580.00
2023-05-17T04:27:12.172Z,570.00
2023-05-17T04:28:12.179Z,583.00
2023-05-17T04:29:12.165Z,560.00
2023-05-17T04:30:12.181Z,565.00
2023-05-17T04:31:12.184Z,554.00
2023-05-17T04:32:12.170Z,567.00
2023-05-17T04:33:14.100Z,566.00
2023-05-17T04:34:12.288Z,576.00
2023-05-17T04:35:12.223Z,575.00
2023-05-17T04:36:12.246Z,579.00
2023-05-17T04:37:12.237Z,568.00
2023-05-17T04:38:12.256Z,567.00
2023-05-17T04:39:12.244Z,562.00
2023-05-17T04:40:12.253Z,542.00
2023-05-17T04:41:12.263Z,539.00
2023-05-17T04:42:12.253Z,545.00
2023-05-17T04:43:12.254Z,531.00
2023-05-17T04:44:12.278Z,533.00
2023-05-17T04:45:13.464Z,518.00
2023-05-17T04:46:12.264Z,545.00
2023-05-17T04:47:12.265Z,542.00
2023-05-17T04:48:12.327Z,555.00
2023-05-17T04:49:12.248Z,545.00
2023-05-17T04:50:12.371Z,542.00
2023-05-17T04:51:12.233Z,557.00
2023-05-17T04:52:12.228Z,552.00
2023-05-17T04:53:12.235Z,542.00
2023-05-17T04:54:12.223Z,542.00
2023-05-17T04:55:12.217Z,561.00
2023-05-17T04:56:12.195Z,554.00
2023-05-17T04:57:12.200Z,551.00
2023-05-17T04:58:12.187Z,555.00
2023-05-17T04:59:12.203Z,542.00
2023-05-17T05:00:12.189Z,544.00
2023-05-17T05:01:12.191Z,530.00
2023-05-17T05:02:12.154Z,539.00
2023-05-17T05:03:12.241Z,531.00
2023-05-17T05:04:12.243Z,538.00
2023-05-17T05:05:12.231Z,540.00
2023-05-17T05:06:12.274Z,548.00
2023-05-17T05:07:12.119Z,553.00
2023-05-17T05:08:12.133Z,537.00
2023-05-17T05:09:12.110Z,525.00
2023-05-17T05:10:12.149Z,522.00
2023-05-17T05:11:12.094Z,520.00
2023-05-17T05:12:12.106Z,527.00
2023-05-17T05:13:12.101Z,538.00
2023-05-17T05:14:12.080Z,534.00
2023-05-17T05:15:12.068Z,539.00
2023-05-17T05:16:12.067Z,543.00
2023-05-17T05:17:12.067Z,547.00
2023-05-17T05:18:12.137Z,545.00
2023-05-17T05:19:12.163Z,537.00
2023-05-17T05:20:12.073Z,533.00
2023-05-17T05:21:12.036Z,535.00
2023-05-17T05:22:12.082Z,517.00
2023-05-17T05:23:12.060Z,518.00
2023-05-17T05:24:12.016Z,515.00
2023-05-17T05:25:12.002Z,513.00
2023-05-17T05:26:12.014Z,509.00
2023-05-17T05:27:11.999Z,506.00
2023-05-17T05:28:12.004Z,500.00
2023-05-17T05:29:11.990Z,467.00
2023-05-17T05:30:12.038Z,523.00
2023-05-17T05:31:11.965Z,534.00
2023-05-17T05:32:11.988Z,507.00
2023-05-17T05:33:12.055Z,526.00
2023-05-17T05:34:11.998Z,544.00
2023-05-17T05:35:11.960Z,595.00
2023-05-17T05:36:11.960Z,586.00
2023-05-17T05:37:11.942Z,601.00
2023-05-17T05:38:11.954Z,613.00
2023-05-17T05:39:11.944Z,649.00
2023-05-17T05:40:11.928Z,724.00
2023-05-17T05:41:11.999Z,754.00
2023-05-17T05:42:11.914Z,925.00
2023-05-17T05:43:11.922Z,1079.00
2023-05-17T05:44:11.907Z,1203.00
2023-05-17T05:45:11.911Z,1302.00
2023-05-17T05:46:11.914Z,1347.00
2023-05-17T05:47:11.875Z,1409.00
2023-05-17T05:48:11.975Z,1472.00
2023-05-17T05:49:11.885Z,1536.00
2023-05-17T05:50:11.846Z,1557.00
2023-05-17T05:51:11.859Z,1604.00
2023-05-17T05:52:11.877Z,1640.00
2023-05-17T05:54:11.883Z,1731.00
2023-05-17T05:55:11.850Z,1769.00
2023-05-17T05:56:11.848Z,1798.00
2023-05-17T05:57:11.820Z,1834.00
2023-05-17T05:58:11.784Z,1857.00
2023-05-17T05:59:11.789Z,1897.00
2023-05-17T06:00:11.785Z,1929.00
2023-05-17T06:01:11.779Z,1879.00
2023-05-17T06:02:11.773Z,1859.00
2023-05-17T06:03:12.099Z,1911.00
2023-05-17T06:04:11.757Z,1964.00
2023-05-17T06:05:11.920Z,1992.00
2023-05-17T06:06:11.867Z,2002.00
2023-05-17T06:07:11.724Z,1987.00
2023-05-17T06:08:11.749Z,2033.00
2023-05-17T06:09:11.707Z,2048.00
2023-05-17T06:10:11.799Z,2094.00
2023-05-17T06:11:11.717Z,2128.00
2023-05-17T06:12:11.705Z,2144.00
2023-05-17T06:13:11.705Z,2157.00
2023-05-17T06:14:11.693Z,2167.00
2023-05-17T06:15:12.601Z,2185.00
2023-05-17T06:16:12.612Z,2196.00
2023-05-17T06:17:11.658Z,2190.00
2023-05-17T06:18:11.692Z,2168.00
2023-05-17T06:19:11.717Z,2238.00
2023-05-17T06:20:11.653Z,2272.00
2023-05-17T06:21:11.645Z,2309.00
2023-05-17T06:22:11.648Z,2333.00
2023-05-17T06:23:11.622Z,2366.00
2023-05-17T06:24:11.632Z,2384.00
2023-05-17T06:25:11.598Z,2367.00
2023-05-17T06:26:11.655Z,2431.00
2023-05-17T06:27:11.587Z,2463.00
2023-05-17T06:28:11.600Z,2490.00
2023-05-17T06:29:12.125Z,2489.00
2023-05-17T06:30:11.589Z,2479.00
2023-05-17T06:31:11.563Z,2504.00
2023-05-17T06:32:11.581Z,2499.00
2023-05-17T06:33:11.681Z,2474.00
2023-05-17T06:34:11.619Z,2501.00
2023-05-17T06:35:11.561Z,2518.00
2023-05-17T06:36:11.532Z,2506.00
2023-05-17T06:37:11.532Z,2476.00
2023-05-17T06:38:11.547Z,2445.00
2023-05-17T06:39:11.535Z,2463.00
2023-05-17T06:41:11.509Z,2454.00
2023-05-17T06:42:11.569Z,2458.00
2023-05-17T06:43:11.622Z,2470.00
2023-05-17T06:44:11.500Z,2487.00
2023-05-17T06:45:11.484Z,2521.00
2023-05-17T06:46:11.481Z,2551.00
2023-05-17T06:47:11.475Z,2544.00
2023-05-17T06:48:11.646Z,2539.00
2023-05-17T06:49:11.511Z,2556.00
2023-05-17T06:50:11.463Z,2560.00
2023-05-17T06:51:11.451Z,2549.00
2023-05-17T06:52:11.414Z,2554.00
2023-05-17T06:53:11.427Z,2547.00
2023-05-17T06:54:11.444Z,2478.00
2023-05-17T06:55:11.395Z,2493.00
2023-05-17T06:56:11.390Z,2458.00
2023-05-17T06:57:11.395Z,2464.00
2023-05-17T06:58:11.458Z,2495.00
2023-05-17T06:59:11.375Z,2419.00
2023-05-17T07:00:11.500Z,2309.00
2023-05-17T07:01:11.357Z,2257.00
2023-05-17T07:02:11.367Z,2264.00
2023-05-17T07:03:11.465Z,2323.00
2023-05-17T07:04:11.407Z,2316.00
2023-05-17T07:05:11.398Z,2142.00
2023-05-17T07:06:11.326Z,2119.00
2023-05-17T07:07:11.329Z,2145.00
2023-05-17T07:08:11.618Z,2202.00
2023-05-17T07:09:11.299Z,2203.00
2023-05-17T07:10:11.292Z,1969.00
2023-05-17T07:11:11.292Z,1955.00
2023-05-17T07:12:11.271Z,2059.00
2023-05-17T07:13:11.268Z,1993.00
2023-05-17T07:14:11.439Z,2092.00
2023-05-17T07:15:11.282Z,2109.00
2023-05-17T07:16:11.261Z,2109.00
2023-05-17T07:17:11.234Z,2108.00
2023-05-17T07:18:11.286Z,2075.00
2023-05-17T07:19:11.342Z,2080.00
2023-05-17T07:20:11.436Z,2058.00
2023-05-17T07:21:11.210Z,2063.00
2023-05-17T07:22:11.199Z,2021.00
2023-05-17T07:23:11.232Z,1983.00
2023-05-17T07:24:11.248Z,2003.00
2023-05-17T07:25:11.232Z,1997.00
2023-05-17T07:26:11.228Z,1826.00
2023-05-17T07:27:11.263Z,1750.00
2023-05-17T07:28:11.297Z,1010.00
2023-05-17T07:29:11.348Z,640.00
2023-05-17T07:30:11.343Z,560.00
2023-05-17T07:31:11.381Z,579.00
2023-05-17T07:32:11.398Z,730.00
2023-05-17T07:33:11.723Z,880.00
2023-05-17T07:34:11.528Z,957.00
2023-05-17T07:35:11.502Z,1080.00
2023-05-17T07:36:11.751Z,1180.00
2023-05-17T07:37:11.558Z,1259.00
2023-05-17T07:38:11.662Z,1327.00
2023-05-17T07:39:11.592Z,1361.00
2023-05-17T07:40:11.679Z,1448.00
2023-05-17T07:41:11.693Z,1553.00
2023-05-17T07:42:11.706Z,1630.00
2023-05-17T07:43:11.730Z,1690.00
2023-05-17T07:44:11.703Z,1726.00
2023-05-17T07:45:11.788Z,1817.00
2023-05-17T07:46:11.978Z,1846.00
2023-05-17T07:47:11.960Z,1876.00
2023-05-17T07:48:12.051Z,1892.00
2023-05-17T07:49:12.046Z,1927.00
2023-05-17T07:50:12.023Z,1958.00
2023-05-17T07:51:12.089Z,1934.00
2023-05-17T07:52:12.110Z,1914.00
2023-05-17T07:53:12.635Z,1954.00
2023-05-17T07:54:12.164Z,1892.00
2023-05-17T07:55:12.465Z,1938.00
2023-05-17T07:56:12.289Z,1896.00
2023-05-17T07:57:12.235Z,1967.00
2023-05-17T07:58:12.668Z,2005.00
2023-05-17T07:59:12.247Z,2028.00
2023-05-17T08:00:12.246Z,2042.00
2023-05-17T08:01:12.265Z,2047.00
2023-05-17T08:02:12.444Z,1974.00
2023-05-17T08:03:14.003Z,2010.00
2023-05-17T08:04:12.277Z,1962.00
2023-05-17T08:05:12.240Z,2013.00
2023-05-17T08:06:12.258Z,1995.00
2023-05-17T08:07:12.225Z,2024.00
2023-05-17T08:08:12.647Z,1912.00
2023-05-17T08:09:12.215Z,1921.00
2023-05-17T08:10:12.224Z,1936.00
2023-05-17T08:11:12.202Z,1980.00
2023-05-17T08:12:12.174Z,1971.00
2023-05-17T08:13:12.167Z,1930.00
2023-05-17T08:14:12.161Z,1970.00
2023-05-17T08:15:12.174Z,1971.00
2023-05-17T08:16:14.097Z,2052.00
2023-05-17T08:17:12.141Z,2055.00
2023-05-17T08:18:12.196Z,2057.00
2023-05-17T08:19:12.233Z,2066.00
2023-05-17T08:20:12.208Z,2082.00
2023-05-17T08:21:12.127Z,2002.00
2023-05-17T08:22:12.108Z,1540.00
2023-05-17T08:23:12.131Z,1221.00
2023-05-17T08:24:12.108Z,1015.00
2023-05-17T08:25:12.102Z,959.00
2023-05-17T08:26:12.101Z,1054.00
2023-05-17T08:27:12.081Z,1142.00
2023-05-17T08:28:12.075Z,1264.00
2023-05-17T08:29:12.068Z,1325.00
2023-05-17T08:30:15.022Z,1371.00
2023-05-17T08:31:13.035Z,1374.00
2023-05-17T08:32:12.056Z,1390.00
2023-05-17T08:33:12.287Z,1410.00
2023-05-17T08:34:12.058Z,1434.00
2023-05-17T08:35:12.036Z,1581.00
2023-05-17T08:36:12.018Z,1678.00
2023-05-17T08:37:12.034Z,1732.00
2023-05-17T08:38:11.981Z,1779.00
2023-05-17T08:39:11.984Z,1884.00
2023-05-17T08:40:12.029Z,1954.00
2023-05-17T08:41:11.955Z,2007.00
2023-05-17T08:42:11.971Z,2075.00
2023-05-17T08:43:11.960Z,2112.00
2023-05-17T08:44:11.941Z,2135.00
2023-05-17T08:45:11.961Z,2129.00
2023-05-17T08:46:11.929Z,2148.00
2023-05-17T08:47:11.941Z,2190.00
2023-05-17T08:48:12.038Z,2175.00
2023-05-17T08:49:12.046Z,2185.00
2023-05-17T08:50:12.092Z,2214.00
2023-05-17T08:51:12.136Z,2223.00
2023-05-17T08:52:12.155Z,2206.00
2023-05-17T08:53:12.248Z,2210.00
2023-05-17T08:54:12.228Z,2195.00
2023-05-17T08:55:12.308Z,2208.00
2023-05-17T08:56:12.315Z,2188.00
2023-05-17T08:57:12.364Z,2209.00
2023-05-17T08:58:12.631Z,2220.00
2023-05-17T08:59:12.412Z,2217.00
2023-05-17T09:00:12.507Z,2239.00
2023-05-17T09:01:12.466Z,2233.00
2023-05-17T09:02:12.530Z,2252.00
2023-05-17T09:03:12.631Z,2265.00
2023-05-17T09:04:12.642Z,2249.00
2023-05-17T09:05:12.630Z,2269.00
2023-05-17T09:06:12.596Z,2261.00
2023-05-17T09:07:13.514Z,2267.00
2023-05-17T09:08:12.645Z,2187.00
2023-05-17T09:09:12.689Z,2203.00
2023-05-17T09:10:12.708Z,2199.00
2023-05-17T09:11:12.738Z,2199.00
2023-05-17T09:12:12.783Z,2226.00
2023-05-17T09:13:12.780Z,2237.00
2023-05-17T09:14:12.796Z,2256.00
2023-05-17T09:15:12.838Z,2255.00
2023-05-17T09:16:12.841Z,2278.00
2023-05-17T09:17:12.852Z,2284.00
2023-05-17T09:18:12.944Z,2305.00
2023-05-17T09:19:13.015Z,2319.00
2023-05-17T09:20:13.068Z,2318.00
2023-05-17T09:21:12.925Z,2321.00
2023-05-17T09:22:13.542Z,2308.00
2023-05-17T09:23:12.977Z,2308.00
2023-05-17T09:24:12.994Z,2294.00
2023-05-17T09:25:13.002Z,2310.00
2023-05-17T09:26:13.012Z,2319.00
2023-05-17T09:27:13.037Z,2336.00
2023-05-17T09:28:13.169Z,2294.00
2023-05-17T09:29:13.054Z,2250.00
2023-05-17T09:30:13.060Z,2302.00
2023-05-17T09:31:13.093Z,2140.00
2023-05-17T09:32:13.104Z,2186.00
2023-05-17T09:33:15.098Z,2246.00
2023-05-17T09:34:13.193Z,2248.00
2023-05-17T09:35:13.139Z,2251.00
2023-05-17T09:36:13.107Z,2252.00
2023-05-17T09:37:13.099Z,2245.00
2023-05-17T09:38:13.086Z,2254.00
2023-05-17T09:39:13.780Z,2267.00
2023-05-17T09:40:13.125Z,2259.00
2023-05-17T09:41:13.097Z,2247.00
2023-05-17T09:42:13.103Z,2231.00
2023-05-17T09:43:13.135Z,2189.00
2023-05-17T09:45:03.626Z,500.00
2023-05-17T09:46:03.409Z,500.00
2023-05-17T09:47:03.414Z,500.00
2023-05-17T09:48:03.573Z,500.00
2023-05-17T09:49:03.521Z,500.00
2023-05-17T09:50:03.403Z,503.00
2023-05-17T09:51:03.360Z,511.00
2023-05-17T09:52:03.373Z,491.00
2023-05-17T09:53:03.363Z,500.00
2023-05-17T09:54:03.342Z,503.00
2023-05-17T09:55:03.346Z,504.00
2023-05-17T09:56:03.345Z,500.00
2023-05-17T09:57:03.326Z,503.00
2023-05-17T09:58:03.341Z,499.00
2023-05-17T09:59:03.314Z,507.00
2023-05-17T10:00:03.335Z,509.00
2023-05-17T10:01:03.331Z,514.00
2023-05-17T10:02:03.317Z,502.00
2023-05-17T10:03:03.365Z,502.00
2023-05-17T10:04:03.328Z,504.00
2023-05-17T10:05:03.311Z,500.00
2023-05-17T10:06:03.299Z,497.00
2023-05-17T10:07:03.283Z,514.00
2023-05-17T10:08:03.285Z,521.00
2023-05-17T10:09:03.284Z,533.00
2023-05-17T10:10:03.246Z,543.00
2023-05-17T10:11:03.230Z,539.00
2023-05-17T10:12:03.240Z,543.00
2023-05-17T10:13:03.256Z,563.00
2023-05-17T10:14:03.231Z,551.00
2023-05-17T10:15:03.289Z,540.00
2023-05-17T10:16:03.304Z,559.00
2023-05-17T10:17:03.648Z,552.00
2023-05-17T10:18:03.555Z,550.00
2023-05-17T10:19:03.516Z,548.00
2023-05-17T10:20:03.613Z,552.00
2023-05-17T10:21:03.584Z,400.00
2023-05-17T10:22:18.909Z,400.00
2023-05-17T10:23:04.674Z,400.00
2023-05-17T10:24:03.624Z,400.00
2023-05-17T10:25:03.590Z,400.00
2023-05-17T10:26:03.562Z,400.00
2023-05-17T10:27:03.559Z,400.00
2023-05-17T10:28:03.558Z,400.00
2023-05-17T10:29:03.571Z,400.00
2023-05-17T10:30:03.568Z,400.00
2023-05-17T10:31:03.531Z,400.00
2023-05-17T10:32:03.556Z,444.00
2023-05-17T10:33:03.667Z,500.00
2023-05-17T10:34:03.569Z,532.00
2023-05-17T10:35:11.362Z,571.00
2023-05-17T10:36:04.509Z,572.00
2023-05-17T10:37:03.505Z,579.00
2023-05-17T10:38:03.497Z,592.00
2023-05-17T10:39:03.488Z,631.00
2023-05-17T10:40:03.477Z,728.00
2023-05-17T10:41:03.464Z,850.00
2023-05-17T10:42:14.211Z,987.00
2023-05-17T10:43:04.467Z,989.00
2023-05-17T10:44:03.452Z,991.00
2023-05-17T10:45:03.443Z,992.00
2023-05-17T10:46:03.449Z,609.00
2023-05-17T10:47:03.419Z,604.00
2023-05-17T10:48:03.460Z,708.00
2023-05-17T10:49:03.442Z,759.00
2023-05-17T10:50:03.424Z,807.00
2023-05-17T10:51:03.395Z,990.00
2023-05-17T10:52:03.389Z,949.00
2023-05-17T10:53:03.385Z,1034.00
2023-05-17T10:54:03.381Z,1202.00
2023-05-17T10:55:03.401Z,1181.00
2023-05-17T10:56:03.430Z,1298.00
2023-05-17T10:57:03.441Z,1340.00
2023-05-17T10:58:03.467Z,1411.00
2023-05-17T10:59:03.476Z,1444.00
2023-05-17T11:00:03.517Z,1414.00
2023-05-17T11:01:03.509Z,1449.00
2023-05-17T11:02:03.610Z,1473.00
2023-05-17T11:03:03.777Z,1508.00
2023-05-17T11:04:03.710Z,1530.00
2023-05-17T11:05:03.797Z,1546.00
2023-05-17T11:06:03.835Z,1574.00
2023-05-17T11:07:05.561Z,1583.00
2023-05-17T11:08:04.114Z,1628.00
2023-05-17T11:09:04.129Z,1612.00
2023-05-17T11:10:03.693Z,1625.00
2023-05-17T11:11:03.682Z,1644.00
2023-05-17T11:12:03.684Z,1633.00
2023-05-17T11:13:03.671Z,1632.00
2023-05-17T11:14:04.155Z,1076.00
2023-05-17T11:15:03.983Z,638.00
2023-05-17T11:16:03.655Z,554.00
2023-05-17T11:17:03.657Z,619.00
2023-05-17T11:18:04.193Z,469.00
2023-05-17T11:19:03.745Z,400.00
2023-05-17T11:20:03.741Z,400.00
2023-05-17T11:21:03.720Z,400.00
2023-05-17T11:22:03.591Z,496.00
2023-05-17T11:23:03.587Z,612.00
2023-05-17T11:24:03.586Z,805.00
2023-05-17T11:25:03.600Z,1019.00
2023-05-17T11:26:13.040Z,1060.00
2023-05-17T11:27:04.579Z,1061.00
2023-05-17T11:28:03.639Z,1032.00
2023-05-17T11:29:03.565Z,960.00
2023-05-17T11:30:03.537Z,966.00
2023-05-17T11:31:03.589Z,988.00
2023-05-17T11:32:03.522Z,1007.00
2023-05-17T11:33:03.815Z,1083.00
2023-05-17T11:34:03.536Z,1160.00
2023-05-17T11:35:03.505Z,1172.00
2023-05-17T11:36:03.508Z,1182.00
2023-05-17T11:37:03.489Z,1175.00
2023-05-17T11:38:03.487Z,1185.00
2023-05-17T11:39:08.049Z,1195.00
2023-05-17T11:40:04.475Z,1195.00
2023-05-17T11:41:04.764Z,1196.00
2023-05-17T11:42:03.478Z,1230.00
2023-05-17T11:43:03.462Z,1294.00
2023-05-17T11:44:03.451Z,1392.00
2023-05-17T11:45:03.456Z,1462.00
2023-05-17T11:46:03.647Z,1506.00
2023-05-17T11:47:03.466Z,1521.00
2023-05-17T11:48:03.566Z,1529.00
2023-05-17T11:49:03.428Z,1579.00
2023-05-17T11:50:03.430Z,1613.00
2023-05-17T11:51:03.411Z,1667.00
2023-05-17T11:52:03.411Z,1711.00
2023-05-17T11:53:03.413Z,1719.00
2023-05-17T11:54:03.399Z,1717.00
2023-05-17T11:55:03.384Z,1711.00
2023-05-17T11:56:03.430Z,1736.00
2023-05-17T11:57:03.359Z,1775.00
2023-05-17T11:58:03.365Z,1801.00
2023-05-17T11:59:03.359Z,1790.00
2023-05-17T12:00:03.329Z,1826.00
2023-05-17T12:01:03.369Z,1826.00
2023-05-17T12:02:03.351Z,1667.00
2023-05-17T12:03:03.355Z,1598.00
2023-05-17T12:04:03.678Z,1568.00
2023-05-17T12:05:03.419Z,1513.00
2023-05-17T12:06:03.372Z,1619.00
2023-05-17T12:07:03.294Z,1711.00
2023-05-17T12:08:03.288Z,1855.00
2023-05-17T12:09:03.283Z,1968.00
2023-05-17T12:10:03.277Z,2031.00
2023-05-17T12:11:03.315Z,2093.00
2023-05-17T12:12:03.251Z,2127.00
2023-05-17T12:13:03.252Z,2161.00
2023-05-17T12:14:03.258Z,2211.00
2023-05-17T12:15:03.251Z,2289.00
2023-05-17T12:16:03.277Z,2336.00
2023-05-17T12:17:03.250Z,2363.00
2023-05-17T12:18:03.262Z,2410.00
2023-05-17T12:19:03.324Z,2426.00
2023-05-17T12:20:03.282Z,2455.00
2023-05-17T12:21:03.195Z,2481.00